Time;durP1;ratioP1;P1;durP2;ratioP2;P2;SDS_P1;SDS_P2;PMS_P1;PMS_P2;Temp;Humidity;BMP_temperature;BMP_pressure;BME280_temperature;BME280_humidity;BME280_pressure;Samples;Min_cycle;Max_cycle;Signal;HPM_P1;HPM_P2
2021/06/06 00:01:47;;;;;;;17.27;12.70;;;15.90;99.90;;;;;;5033297;28;20443;-76
2021/06/06 00:04:21;;;;;;;17.07;12.77;;;15.80;99.90;;;;;;5024841;28;20517;-78
2021/06/06 00:07:04;;;;;;;16.45;13.32;;;15.90;99.90;;;;;;5025822;28;20506;-78
2021/06/06 00:09:31;;;;;;;17.15;12.52;;;15.80;99.90;;;;;;5020696;28;20196;-80
2021/06/06 00:11:57;;;;;;;15.13;12.75;;;15.80;99.90;;;;;;5019871;28;20238;-78
2021/06/06 00:14:28;;;;;;;19.10;12.70;;;15.80;99.90;;;;;;5018842;28;20227;-78
2021/06/06 00:16:57;;;;;;;16.13;12.67;;;15.70;99.90;;;;;;5019901;28;20286;-78
2021/06/06 00:19:26;;;;;;;15.70;12.73;;;15.80;99.90;;;;;;5019277;28;20469;-80
2021/06/06 00:21:54;;;;;;;15.98;14.13;;;15.70;99.90;;;;;;5019543;28;20459;-78
2021/06/06 00:24:24;;;;;;;20.05;13.80;;;15.70;99.90;;;;;;5019095;28;20263;-80
2021/06/06 00:26:52;;;;;;;15.40;13.33;;;15.80;99.90;;;;;;5019810;28;20652;-79
2021/06/06 00:29:18;;;;;;;17.10;12.73;;;15.70;99.90;;;;;;5019588;28;20458;-79
2021/06/06 00:31:45;;;;;;;16.92;14.13;;;15.70;99.90;;;;;;5024816;28;20454;-78
2021/06/06 00:34:12;;;;;;;18.77;13.90;;;15.70;99.90;;;;;;5019465;28;20227;-79
2021/06/06 00:36:40;;;;;;;15.90;13.38;;;15.70;99.90;;;;;;5019219;28;20212;-79
2021/06/06 00:39:06;;;;;;;18.13;12.80;;;15.60;99.90;;;;;;5019437;28;20281;-78
2021/06/06 00:41:37;;;;;;;20.85;13.73;;;15.60;99.90;;;;;;5020368;28;20204;-78
2021/06/06 00:44:05;;;;;;;19.77;14.40;;;15.60;99.90;;;;;;5019088;28;20228;-77
2021/06/06 00:46:31;;;;;;;23.33;15.05;;;15.60;99.90;;;;;;5017555;28;20195;-79
2021/06/06 00:49:00;;;;;;;22.73;15.80;;;15.60;99.90;;;;;;5018037;28;20227;-79
2021/06/06 00:51:31;;;;;;;23.50;16.80;;;15.50;99.90;;;;;;5033254;28;20203;-78
2021/06/06 00:54:05;;;;;;;20.00;15.30;;;15.50;99.90;;;;;;5023227;28;20315;-80
2021/06/06 00:56:32;;;;;;;20.70;14.80;;;15.50;99.90;;;;;;5020247;28;20211;-79
2021/06/06 00:58:59;;;;;;;23.23;14.33;;;15.50;99.90;;;;;;5033885;28;20220;-77
2021/06/06 01:01:27;;;;;;;21.23;15.82;;;15.50;99.90;;;;;;5037688;28;20417;-74
2021/06/06 01:03:55;;;;;;;23.17;15.07;;;15.50;99.90;;;;;;5037263;28;20212;-76
2021/06/06 01:06:26;;;;;;;22.90;14.82;;;15.50;99.90;;;;;;5032181;28;20204;-78
2021/06/06 01:08:53;;;;;;;21.87;15.87;;;15.50;99.90;;;;;;5030498;28;20192;-79
2021/06/06 01:11:27;;;;;;;21.55;16.65;;;15.50;99.90;;;;;;5030765;28;20414;-79
2021/06/06 01:13:59;;;;;;;21.95;16.38;;;15.50;99.90;;;;;;5029210;28;20242;-78
2021/06/06 01:16:32;;;;;;;22.17;16.00;;;15.50;99.90;;;;;;5020349;28;20208;-79
2021/06/06 01:19:02;;;;;;;27.70;17.23;;;15.50;99.90;;;;;;5020663;28;20248;-78
2021/06/06 01:21:45;;;;;;;23.73;16.20;;;15.40;99.90;;;;;;5021191;28;20235;-79
2021/06/06 01:24:17;;;;;;;26.27;16.07;;;15.40;99.90;;;;;;5019703;28;20607;-77
2021/06/06 01:26:48;;;;;;;30.70;17.35;;;15.40;99.90;;;;;;5013256;28;20425;-77
2021/06/06 01:29:28;;;;;;;22.07;15.50;;;15.40;99.90;;;;;;5014069;28;20207;-77
2021/06/06 01:31:59;;;;;;;27.38;17.33;;;15.40;99.90;;;;;;5012839;28;20845;-78
2021/06/06 01:34:27;;;;;;;23.20;16.60;;;15.40;99.90;;;;;;5015523;28;20259;-78
2021/06/06 01:36:59;;;;;;;26.42;16.83;;;15.40;99.90;;;;;;5017380;28;20237;-78
2021/06/06 01:39:30;;;;;;;23.50;15.68;;;15.30;99.90;;;;;;5023348;28;20237;-78
2021/06/06 01:42:00;;;;;;;27.52;18.08;;;15.30;99.90;;;;;;5037045;28;20203;-78
2021/06/06 01:44:30;;;;;;;31.27;18.35;;;15.20;99.90;;;;;;5036284;28;20215;-78
2021/06/06 01:47:00;;;;;;;29.75;17.58;;;15.20;99.90;;;;;;5030106;28;20239;-78
2021/06/06 01:49:28;;;;;;;29.63;18.70;;;15.30;99.90;;;;;;5019014;28;20216;-77
2021/06/06 01:51:59;;;;;;;29.27;17.75;;;15.20;99.90;;;;;;5019954;28;20668;-77
2021/06/06 01:54:31;;;;;;;24.00;16.88;;;15.30;99.90;;;;;;5017117;28;20318;-77
2021/06/06 01:56:58;;;;;;;27.30;16.38;;;15.30;99.90;;;;;;5016690;28;20636;-77
2021/06/06 01:59:27;;;;;;;29.02;17.73;;;15.20;99.90;;;;;;5016533;28;20379;-77
2021/06/06 02:01:54;;;;;;;28.75;16.25;;;15.20;99.90;;;;;;5016962;28;20230;-77
2021/06/06 02:04:29;;;;;;;26.05;17.60;;;15.20;99.90;;;;;;5018053;28;20327;-77
2021/06/06 02:07:00;;;;;;;26.58;17.42;;;15.10;99.90;;;;;;5017677;28;20239;-78
2021/06/06 02:09:31;;;;;;;29.02;17.30;;;15.20;99.90;;;;;;5026017;28;20227;-78
2021/06/06 02:12:01;;;;;;;30.98;18.13;;;15.20;99.90;;;;;;5034861;28;20242;-77
2021/06/06 02:14:31;;;;;;;24.98;18.17;;;15.20;99.90;;;;;;5038690;28;20227;-77
2021/06/06 02:17:00;;;;;;;23.55;16.38;;;15.20;99.90;;;;;;5027652;28;20223;-78
2021/06/06 02:19:29;;;;;;;22.92;16.50;;;15.20;99.90;;;;;;5028854;28;20207;-78
2021/06/06 02:21:59;;;;;;;23.57;15.97;;;15.30;99.90;;;;;;5031950;28;20199;-77
2021/06/06 02:24:26;;;;;;;22.48;16.55;;;15.30;99.90;;;;;;5040155;23;20585;-79
2021/06/06 02:26:57;;;;;;;21.15;15.32;;;15.30;99.90;;;;;;5021775;28;20215;-79
2021/06/06 02:29:29;;;;;;;25.25;16.10;;;15.30;99.90;;;;;;5021432;28;20243;-78
2021/06/06 02:32:02;;;;;;;17.90;13.90;;;15.30;99.90;;;;;;5033765;28;20235;-80
2021/06/06 02:34:36;;;;;;;21.60;14.88;;;15.20;99.90;;;;;;5033981;28;20227;-79
2021/06/06 02:37:19;;;;;;;21.30;14.20;;;15.20;99.90;;;;;;5021329;28;20741;-79
2021/06/06 02:39:50;;;;;;;22.88;15.50;;;15.20;99.90;;;;;;5020084;28;20290;-80
2021/06/06 02:42:23;;;;;;;21.60;15.00;;;15.20;99.90;;;;;;5023023;28;20203;-79
2021/06/06 02:44:53;;;;;;;19.77;14.80;;;15.20;99.90;;;;;;5025316;28;20270;-79
2021/06/06 02:47:24;;;;;;;22.77;15.15;;;15.20;99.90;;;;;;5020422;28;20239;-79
2021/06/06 02:49:54;;;;;;;22.13;15.63;;;15.20;99.90;;;;;;5022831;28;20243;-79
2021/06/06 02:52:24;;;;;;;20.83;14.18;;;15.30;99.90;;;;;;5024101;28;20447;-79
2021/06/06 02:54:55;;;;;;;19.88;14.60;;;15.20;99.90;;;;;;5018959;28;20290;-78
2021/06/06 02:57:26;;;;;;;19.30;14.35;;;15.20;99.90;;;;;;5018064;28;20248;-79
2021/06/06 02:59:56;;;;;;;20.50;14.35;;;15.20;99.90;;;;;;5018879;28;20250;-79
2021/06/06 03:02:25;;;;;;;20.83;13.63;;;15.20;99.90;;;;;;5018520;28;20715;-79
2021/06/06 03:04:56;;;;;;;25.42;16.38;;;15.20;99.90;;;;;;5017622;28;20792;-79
2021/06/06 03:07:27;;;;;;;21.52;15.70;;;15.10;99.90;;;;;;5017919;28;20257;-79
2021/06/06 03:09:53;;;;;;;21.95;14.90;;;15.10;99.90;;;;;;5019285;28;20295;-80
2021/06/06 03:12:22;;;;;;;20.95;13.90;;;15.20;99.90;;;;;;5022033;28;20210;-79
2021/06/06 03:14:50;;;;;;;22.33;14.90;;;15.20;99.90;;;;;;5023519;28;20266;-79
2021/06/06 03:17:24;;;;;;;19.85;14.80;;;15.20;99.90;;;;;;5024394;28;20211;-78
2021/06/06 03:19:54;;;;;;;27.30;15.68;;;15.20;99.90;;;;;;5027076;28;20188;-79
2021/06/06 03:22:23;;;;;;;25.02;15.32;;;15.20;99.90;;;;;;5028221;28;20235;-78
2021/06/06 03:24:54;;;;;;;20.52;13.77;;;15.20;99.90;;;;;;5017915;28;20235;-79
2021/06/06 03:27:24;;;;;;;21.88;14.70;;;15.30;99.90;;;;;;5017817;28;20302;-78
2021/06/06 03:29:58;;;;;;;25.10;16.10;;;15.20;99.90;;;;;;5018995;28;20208;-79
2021/06/06 03:32:29;;;;;;;24.70;14.50;;;15.20;99.90;;;;;;5023645;28;20239;-78
2021/06/06 03:34:55;;;;;;;23.77;15.73;;;15.20;99.90;;;;;;5021801;28;20231;-79
2021/06/06 03:37:22;;;;;;;30.13;16.10;;;15.20;99.90;;;;;;5023307;28;20227;-77
2021/06/06 03:39:48;;;;;;;23.00;14.68;;;15.20;99.90;;;;;;5021353;28;20212;-77
2021/06/06 03:42:15;;;;;;;22.33;15.05;;;15.20;99.90;;;;;;5016862;28;20258;-78
2021/06/06 03:44:43;;;;;;;23.90;15.32;;;15.20;99.90;;;;;;5021949;28;20343;-78
2021/06/06 03:47:10;;;;;;;21.92;14.55;;;15.20;99.90;;;;;;5035356;28;20196;-79
2021/06/06 03:49:36;;;;;;;26.42;15.75;;;15.10;99.90;;;;;;5038775;28;20196;-79
2021/06/06 03:52:04;;;;;;;20.25;14.20;;;15.10;99.90;;;;;;5037919;28;20227;-78
2021/06/06 03:54:31;;;;;;;22.80;14.55;;;15.10;99.90;;;;;;5021863;28;20606;-78
2021/06/06 03:56:57;;;;;;;22.27;14.85;;;15.10;99.90;;;;;;5017102;28;20617;-79
2021/06/06 03:59:24;;;;;;;19.95;13.32;;;15.10;99.90;;;;;;5017195;28;20231;-79
2021/06/06 04:01:52;;;;;;;20.58;13.38;;;15.10;99.90;;;;;;5016730;28;20208;-79
2021/06/06 04:04:19;;;;;;;19.08;12.35;;;15.10;99.90;;;;;;5017697;28;20261;-78
2021/06/06 04:06:46;;;;;;;16.90;12.10;;;15.10;99.90;;;;;;5025406;28;20679;-79
2021/06/06 04:09:13;;;;;;;18.55;12.52;;;15.10;99.90;;;;;;5036845;28;20206;-80
2021/06/06 04:11:39;;;;;;;18.33;12.15;;;15.10;99.90;;;;;;5038587;28;20192;-78
2021/06/06 04:14:06;;;;;;;16.52;12.50;;;15.10;99.90;;;;;;5036547;28;20212;-78
2021/06/06 04:16:34;;;;;;;13.88;10.93;;;15.10;99.90;;;;;;5017615;28;20774;-78
2021/06/06 04:19:02;;;;;;;13.85;11.50;;;15.10;99.90;;;;;;5022418;28;20228;-78
2021/06/06 04:21:31;;;;;;;15.68;10.38;;;15.20;99.90;;;;;;5020376;28;20275;-78
2021/06/06 04:23:57;;;;;;;12.63;9.85;;;15.20;99.90;;;;;;5022230;28;20247;-78
2021/06/06 04:26:24;;;;;;;14.27;10.68;;;15.10;99.90;;;;;;5022917;28;20675;-78
2021/06/06 04:28:52;;;;;;;13.85;10.77;;;15.10;99.90;;;;;;5023165;28;20200;-77
2021/06/06 04:31:19;;;;;;;19.10;11.40;;;15.20;99.90;;;;;;5021062;28;20247;-76
2021/06/06 04:33:46;;;;;;;17.52;11.10;;;15.10;99.90;;;;;;5026227;28;20227;-77
2021/06/06 04:36:14;;;;;;;14.95;9.93;;;15.20;99.90;;;;;;5017778;28;20303;-77
2021/06/06 04:38:40;;;;;;;13.30;10.40;;;15.20;99.90;;;;;;5017312;28;20699;-77
2021/06/06 04:41:09;;;;;;;13.50;10.55;;;15.20;99.90;;;;;;5016287;28;20686;-77
2021/06/06 04:43:35;;;;;;;12.77;10.25;;;15.20;99.90;;;;;;5014574;28;20680;-77
2021/06/06 04:46:02;;;;;;;12.27;9.90;;;15.20;99.90;;;;;;5014685;28;20204;-77
2021/06/06 04:48:35;;;;;;;14.80;10.50;;;15.20;99.90;;;;;;5015556;28;20238;-77
2021/06/06 04:51:06;;;;;;;13.23;9.98;;;15.20;99.90;;;;;;5015134;28;20298;-77
2021/06/06 04:53:34;;;;;;;12.52;9.70;;;15.20;99.90;;;;;;5014735;28;20241;-77
2021/06/06 04:56:01;;;;;;;9.90;8.60;;;15.20;99.90;;;;;;5015146;28;20266;-79
2021/06/06 04:58:30;;;;;;;11.38;9.07;;;15.20;99.90;;;;;;5014261;28;20569;-78
2021/06/06 05:00:56;;;;;;;12.55;10.00;;;15.10;99.90;;;;;;5017708;28;20570;-77
2021/06/06 05:03:23;;;;;;;14.18;9.30;;;15.20;99.90;;;;;;5015633;28;20215;-78
2021/06/06 05:05:50;;;;;;;11.10;9.52;;;15.10;99.90;;;;;;5017470;28;20232;-77
2021/06/06 05:08:19;;;;;;;14.70;9.43;;;15.20;99.90;;;;;;5017756;28;20215;-78
2021/06/06 05:10:48;;;;;;;12.75;9.75;;;15.20;99.90;;;;;;5017008;28;20735;-79
2021/06/06 05:13:15;;;;;;;9.70;8.70;;;15.20;99.90;;;;;;5020483;28;20208;-77
2021/06/06 05:15:41;;;;;;;10.27;8.35;;;15.20;99.90;;;;;;5014624;28;20230;-78
2021/06/06 05:18:09;;;;;;;11.10;9.02;;;15.20;99.90;;;;;;5015747;28;20278;-78
2021/06/06 05:20:39;;;;;;;10.18;8.25;;;15.20;99.90;;;;;;5014656;28;20620;-77
2021/06/06 05:23:06;;;;;;;9.80;8.10;;;15.20;99.90;;;;;;5024506;28;20205;-77
2021/06/06 05:25:33;;;;;;;10.23;7.95;;;15.20;99.90;;;;;;5035659;28;20236;-76
2021/06/06 05:28:01;;;;;;;9.10;8.00;;;15.20;99.90;;;;;;5029126;28;20212;-78
2021/06/06 05:30:30;;;;;;;8.48;7.40;;;15.20;99.90;;;;;;5022332;28;20667;-79
2021/06/06 05:32:57;;;;;;;9.05;8.15;;;15.20;99.90;;;;;;5024726;28;20207;-78
2021/06/06 05:35:27;;;;;;;9.70;8.27;;;15.20;99.90;;;;;;5025149;28;20232;-78
2021/06/06 05:37:54;;;;;;;11.48;7.63;;;15.20;99.90;;;;;;5025383;28;20232;-78
2021/06/06 05:40:22;;;;;;;9.07;6.90;;;15.20;99.90;;;;;;5024766;28;20208;-78
2021/06/06 05:42:49;;;;;;;9.23;7.75;;;15.30;99.90;;;;;;5023418;28;20235;-78
2021/06/06 05:45:20;;;;;;;11.75;8.25;;;15.30;99.90;;;;;;5027117;28;20239;-79
2021/06/06 05:47:46;;;;;;;10.23;7.95;;;15.20;99.90;;;;;;5029043;28;20263;-78
2021/06/06 05:50:16;;;;;;;8.68;7.78;;;15.30;99.90;;;;;;5027896;28;20219;-78
2021/06/06 05:52:43;;;;;;;9.52;8.40;;;15.30;99.90;;;;;;5021773;28;20266;-77
2021/06/06 05:55:10;;;;;;;8.40;6.95;;;15.20;99.90;;;;;;5020968;28;20228;-77
2021/06/06 05:57:37;;;;;;;8.20;7.10;;;15.20;99.90;;;;;;5021002;28;20608;-77
2021/06/06 06:00:06;;;;;;;9.18;8.15;;;15.20;99.90;;;;;;5024824;28;20488;-77
2021/06/06 06:02:34;;;;;;;10.25;7.82;;;15.20;99.90;;;;;;5028716;28;20208;-77
2021/06/06 06:05:00;;;;;;;8.18;7.30;;;15.30;99.90;;;;;;5028759;28;20604;-78
2021/06/06 06:07:27;;;;;;;8.80;7.40;;;15.30;99.90;;;;;;5021180;28;20659;-76
2021/06/06 06:09:53;;;;;;;9.70;8.18;;;15.30;99.90;;;;;;5016292;28;20212;-77
2021/06/06 06:12:20;;;;;;;9.73;7.45;;;15.30;99.90;;;;;;5016418;28;20219;-77
2021/06/06 06:14:46;;;;;;;10.55;7.90;;;15.20;99.90;;;;;;5015128;28;20231;-77
2021/06/06 06:17:13;;;;;;;9.80;8.48;;;15.20;99.90;;;;;;5014618;28;20212;-77
2021/06/06 06:19:41;;;;;;;9.95;8.25;;;15.20;99.90;;;;;;5014468;28;20600;-77
2021/06/06 06:22:07;;;;;;;9.43;7.50;;;15.20;99.90;;;;;;5024965;28;20290;-77
2021/06/06 06:24:35;;;;;;;8.50;7.15;;;15.30;99.90;;;;;;5017872;28;20259;-77
2021/06/06 06:27:02;;;;;;;7.88;6.88;;;15.40;99.90;;;;;;5017666;28;20212;-77
2021/06/06 06:29:28;;;;;;;8.80;7.25;;;15.40;99.90;;;;;;5018243;28;20235;-77
2021/06/06 06:31:55;;;;;;;7.30;6.60;;;15.30;99.90;;;;;;5016158;28;20230;-77
2021/06/06 06:34:22;;;;;;;8.48;7.25;;;15.30;99.90;;;;;;5017325;28;20704;-79
2021/06/06 06:36:50;;;;;;;10.88;6.60;;;15.30;99.90;;;;;;5019341;28;20675;-78
2021/06/06 06:39:16;;;;;;;9.40;7.18;;;15.30;99.90;;;;;;5018470;28;20254;-79
2021/06/06 06:41:43;;;;;;;7.30;6.18;;;15.30;99.90;;;;;;5019023;28;20391;-78
2021/06/06 06:44:09;;;;;;;7.85;6.85;;;15.30;99.90;;;;;;5017021;28;20445;-78
2021/06/06 06:46:36;;;;;;;9.48;7.00;;;15.30;99.90;;;;;;5016754;28;20249;-77
2021/06/06 06:49:02;;;;;;;7.88;7.07;;;15.30;99.90;;;;;;5017658;28;20299;-78
2021/06/06 06:51:28;;;;;;;9.00;6.57;;;15.30;99.90;;;;;;5017970;28;20215;-77
2021/06/06 06:53:56;;;;;;;6.72;6.13;;;15.30;99.90;;;;;;5019975;28;20263;-78
2021/06/06 06:56:24;;;;;;;7.82;6.75;;;15.30;99.90;;;;;;5029957;28;20199;-76
2021/06/06 06:58:50;;;;;;;8.50;6.55;;;15.20;99.90;;;;;;5038223;28;20219;-78
2021/06/06 07:01:17;;;;;;;5.90;5.40;;;15.30;99.90;;;;;;5036873;28;20207;-77
2021/06/06 07:03:43;;;;;;;6.30;5.70;;;15.30;99.90;;;;;;5024666;28;20314;-77
2021/06/06 07:06:10;;;;;;;6.50;5.80;;;15.40;99.90;;;;;;5016067;28;20620;-77
2021/06/06 07:08:38;;;;;;;5.65;4.80;;;15.40;99.90;;;;;;5016133;28;20206;-77
2021/06/06 07:11:09;;;;;;;7.55;5.25;;;15.60;99.90;;;;;;5017174;28;20559;-78
2021/06/06 07:13:35;;;;;;;6.15;4.90;;;15.70;99.90;;;;;;5016467;28;20477;-77
2021/06/06 07:16:02;;;;;;;6.18;5.55;;;15.70;99.90;;;;;;5021001;28;20299;-77
2021/06/06 07:18:29;;;;;;;5.77;4.17;;;15.90;99.90;;;;;;5023601;28;20231;-77
2021/06/06 07:20:59;;;;;;;4.90;4.30;;;16.00;99.90;;;;;;5020357;28;20450;-77
2021/06/06 07:23:26;;;;;;;5.43;4.13;;;16.00;99.90;;;;;;5018007;28;20507;-78
2021/06/06 07:25:55;;;;;;;4.57;4.17;;;16.10;99.90;;;;;;5016410;28;20498;-76
2021/06/06 07:28:26;;;;;;;4.70;4.30;;;16.20;99.90;;;;;;5017158;28;20425;-78
2021/06/06 07:30:54;;;;;;;5.10;4.20;;;16.20;99.90;;;;;;5017706;28;20450;-78
2021/06/06 07:33:26;;;;;;;4.23;3.83;;;16.20;99.90;;;;;;5018610;28;20558;-78
2021/06/06 07:35:53;;;;;;;4.20;3.80;;;16.10;99.90;;;;;;5023148;28;20490;-77
2021/06/06 07:38:19;;;;;;;2.90;2.70;;;16.20;99.90;;;;;;5026291;28;20505;-79
2021/06/06 07:40:47;;;;;;;3.20;2.90;;;16.20;99.90;;;;;;5021194;28;20461;-78
2021/06/06 07:43:14;;;;;;;4.57;3.23;;;16.20;99.90;;;;;;5014764;28;20453;-79
2021/06/06 07:45:43;;;;;;;3.10;2.83;;;16.30;99.90;;;;;;5016969;28;20441;-77
2021/06/06 07:48:10;;;;;;;3.00;2.80;;;16.30;99.90;;;;;;5017133;28;20461;-77
2021/06/06 07:50:41;;;;;;;3.70;3.00;;;16.30;99.90;;;;;;5018489;28;20429;-78
2021/06/06 07:53:08;;;;;;;2.70;2.43;;;16.30;99.90;;;;;;5019533;28;20448;-77
2021/06/06 07:55:34;;;;;;;3.47;3.17;;;16.30;99.90;;;;;;5018953;28;20474;-78
2021/06/06 07:58:00;;;;;;;3.53;3.23;;;16.30;99.90;;;;;;5022640;28;20540;-77
2021/06/06 08:00:30;;;;;;;3.13;2.93;;;16.30;99.90;;;;;;5031365;28;20917;-78
2021/06/06 08:02:58;;;;;;;4.17;3.70;;;16.20;99.90;;;;;;5022955;28;20487;-78
2021/06/06 08:05:25;;;;;;;4.30;3.90;;;16.20;99.90;;;;;;5025691;28;20528;-78
2021/06/06 08:07:52;;;;;;;4.00;3.63;;;16.20;99.90;;;;;;5034499;28;20828;-78
2021/06/06 08:10:22;;;;;;;4.30;3.90;;;16.20;99.90;;;;;;5031972;28;20490;-78
2021/06/06 08:12:49;;;;;;;3.87;3.57;;;16.20;99.90;;;;;;5027637;28;20449;-76
2021/06/06 08:15:16;;;;;;;5.53;4.70;;;16.00;99.90;;;;;;5023469;28;20483;-78
2021/06/06 08:17:43;;;;;;;5.60;5.10;;;16.00;99.90;;;;;;5022054;28;20211;-78
2021/06/06 08:20:15;;;;;;;6.97;5.13;;;16.00;99.90;;;;;;5030900;28;20469;-78
2021/06/06 08:22:42;;;;;;;6.10;5.17;;;16.10;99.90;;;;;;5033767;28;20455;-80
2021/06/06 08:25:11;;;;;;;8.80;5.70;;;16.20;99.90;;;;;;5022542;28;20529;-79
2021/06/06 08:27:38;;;;;;;8.03;7.23;;;16.20;99.90;;;;;;5019309;28;20451;-79
2021/06/06 08:30:08;;;;;;;7.10;6.03;;;16.30;99.90;;;;;;5019975;28;20459;-79
2021/06/06 08:32:35;;;;;;;7.90;6.80;;;16.30;99.90;;;;;;5020160;28;20450;-82
2021/06/06 08:35:01;;;;;;;15.27;11.83;;;16.30;99.90;;;;;;5023521;28;20502;-80
2021/06/06 08:37:29;;;;;;;19.10;14.33;;;16.30;99.90;;;;;;5028029;28;20458;-79
2021/06/06 08:39:55;;;;;;;17.83;13.57;;;16.30;99.90;;;;;;5023111;28;20522;-77
2021/06/06 08:42:26;;;;;;;16.97;13.70;;;16.40;99.90;;;;;;5018646;28;20537;-78
2021/06/06 08:45:05;;;;;;;19.53;14.90;;;16.40;99.90;;;;;;5020430;28;20460;-78
2021/06/06 08:47:33;;;;;;;21.23;16.63;;;16.40;99.90;;;;;;5018914;28;20478;-79
2021/06/06 08:50:02;;;;;;;20.93;16.33;;;16.50;99.90;;;;;;5018772;28;20445;-79
2021/06/06 08:52:41;;;;;;;23.17;18.83;;;16.50;99.90;;;;;;5019174;28;20434;-80
2021/06/06 08:55:17;;;;;;;26.10;19.37;;;16.50;99.90;;;;;;5016924;28;20821;-78
2021/06/06 08:57:47;;;;;;;23.57;17.77;;;16.40;99.90;;;;;;5016684;28;20437;-78
2021/06/06 09:00:21;;;;;;;24.67;17.90;;;16.50;99.90;;;;;;5017085;28;20503;-78
2021/06/06 09:02:49;;;;;;;25.67;20.57;;;16.50;99.90;;;;;;5017236;28;20444;-80
2021/06/06 09:05:26;;;;;;;26.70;19.90;;;16.50;99.90;;;;;;5020488;28;20574;-79
2021/06/06 09:07:58;;;;;;;28.47;19.40;;;16.50;99.90;;;;;;5024181;28;20481;-78
2021/06/06 09:10:30;;;;;;;26.70;21.17;;;16.60;99.90;;;;;;5031646;28;20425;-77
2021/06/06 09:12:57;;;;;;;31.73;21.83;;;16.50;99.90;;;;;;5016029;28;20459;-77
2021/06/06 09:15:26;;;;;;;30.47;22.70;;;16.60;99.90;;;;;;5015526;28;21015;-77
2021/06/06 09:17:59;;;;;;;32.77;22.73;;;16.60;99.90;;;;;;5021474;28;20468;-77
2021/06/06 09:20:33;;;;;;;32.90;24.47;;;16.50;99.90;;;;;;5015413;28;20462;-77
2021/06/06 09:23:15;;;;;;;34.93;24.97;;;16.60;99.90;;;;;;5017406;28;20532;-79
2021/06/06 09:25:43;;;;;;;36.87;24.37;;;16.70;99.90;;;;;;5018156;28;20513;-79
2021/06/06 09:28:14;;;;;;;31.90;24.73;;;16.90;99.90;;;;;;5017389;28;20494;-80
2021/06/06 09:30:42;;;;;;;32.37;25.00;;;16.90;99.90;;;;;;5016614;28;20451;-77
2021/06/06 09:33:14;;;;;;;35.60;23.83;;;16.90;99.90;;;;;;5021407;28;20458;-78
2021/06/06 09:35:51;;;;;;;30.23;22.77;;;17.00;99.90;;;;;;5022893;28;20475;-79
2021/06/06 09:38:23;;;;;;;32.73;23.60;;;16.90;99.90;;;;;;5023094;28;21017;-78
2021/06/06 09:40:51;;;;;;;27.10;21.33;;;17.00;99.90;;;;;;5022674;28;20761;-80
2021/06/06 09:43:23;;;;;;;28.20;22.07;;;17.30;99.90;;;;;;5018453;28;20425;-77
2021/06/06 09:45:50;;;;;;;27.80;22.23;;;17.50;99.90;;;;;;5017231;28;20537;-78
2021/06/06 09:48:26;;;;;;;28.57;22.10;;;17.50;99.90;;;;;;5023171;28;20459;-78
2021/06/06 09:50:55;;;;;;;29.87;23.27;;;17.60;98.80;;;;;;5032639;28;20437;-78
2021/06/06 09:53:25;;;;;;;29.43;22.03;;;17.60;97.20;;;;;;5025629;28;20417;-78
2021/06/06 09:56:03;;;;;;;28.27;21.87;;;17.70;96.40;;;;;;5035743;28;20941;-77
2021/06/06 09:58:33;;;;;;;31.17;22.50;;;17.70;96.30;;;;;;5032997;28;20479;-78
2021/06/06 10:01:04;;;;;;;30.13;22.67;;;17.70;95.90;;;;;;5030790;28;20509;-78
2021/06/06 10:03:34;;;;;;;31.77;23.07;;;17.70;96.30;;;;;;5018128;28;20440;-77
2021/06/06 10:06:24;;;;;;;28.07;21.53;;;17.80;96.50;;;;;;5017895;28;20458;-78
2021/06/06 10:09:01;;;;;;;32.50;23.87;;;17.80;96.40;;;;;;5024390;28;20453;-77
2021/06/06 10:11:36;;;;;;;31.10;23.13;;;17.80;95.70;;;;;;5022059;28;20825;-77
2021/06/06 10:14:03;;;;;;;31.93;23.60;;;17.70;95.00;;;;;;5027524;28;20470;-77
2021/06/06 10:16:35;;;;;;;31.60;23.40;;;17.60;97.10;;;;;;5026035;28;20448;-77
2021/06/06 10:19:08;;;;;;;33.43;24.87;;;17.60;98.00;;;;;;5025967;28;20526;-77
2021/06/06 10:21:36;;;;;;;36.20;24.10;;;17.60;98.30;;;;;;5028516;28;20478;-77
2021/06/06 10:24:11;;;;;;;36.10;25.67;;;17.70;99.20;;;;;;5027081;28;20460;-77
2021/06/06 10:26:41;;;;;;;34.73;24.20;;;17.80;99.20;;;;;;5025028;28;20453;-77
2021/06/06 10:29:21;;;;;;;32.37;25.57;;;17.80;98.70;;;;;;5028529;28;20441;-76
2021/06/06 10:31:49;;;;;;;31.43;23.10;;;17.90;98.20;;;;;;5025558;28;20406;-79
2021/06/06 10:34:25;;;;;;;29.77;24.10;;;17.90;97.70;;;;;;5019691;28;20502;-77
2021/06/06 10:36:52;;;;;;;31.50;23.27;;;18.00;98.10;;;;;;5020698;28;20456;-78
2021/06/06 10:39:23;;;;;;;33.57;23.93;;;18.10;98.20;;;;;;5020225;28;20498;-77
2021/06/06 10:41:54;;;;;;;32.30;23.83;;;18.30;97.40;;;;;;5021169;28;20497;-78
2021/06/06 10:44:27;;;;;;;32.60;24.07;;;18.30;96.20;;;;;;5020279;28;20475;-76
2021/06/06 10:46:58;;;;;;;35.70;23.67;;;18.40;95.10;;;;;;5018348;28;20421;-77
2021/06/06 10:49:28;;;;;;;28.97;22.03;;;18.50;94.20;;;;;;5019959;28;20440;-77
2021/06/06 10:51:56;;;;;;;32.60;24.40;;;18.60;93.60;;;;;;5020468;28;20446;-77
2021/06/06 10:54:36;;;;;;;28.90;23.10;;;18.60;93.70;;;;;;5022155;28;21047;-77
2021/06/06 10:57:07;;;;;;;27.23;21.83;;;18.70;93.80;;;;;;5033596;28;20767;-78
2021/06/06 10:59:46;;;;;;;32.33;22.97;;;18.70;93.40;;;;;;5020577;28;20486;-78
2021/06/06 11:02:28;;;;;;;28.70;22.57;;;18.90;92.60;;;;;;5027902;28;20508;-78
2021/06/06 11:04:57;;;;;;;30.20;22.20;;;18.90;92.20;;;;;;5028158;28;20460;-77
2021/06/06 11:07:36;;;;;;;28.37;21.50;;;18.90;92.30;;;;;;5020565;28;20491;-78
2021/06/06 11:10:08;;;;;;;28.47;19.90;;;19.00;92.70;;;;;;5021641;28;20433;-79
2021/06/06 11:12:38;;;;;;;26.67;20.47;;;19.10;92.00;;;;;;5024971;28;20454;-79
2021/06/06 11:15:18;;;;;;;25.13;19.27;;;19.20;92.20;;;;;;5028185;28;20476;-78
2021/06/06 11:17:45;;;;;;;26.00;18.20;;;19.10;91.30;;;;;;5028867;28;20462;-76
2021/06/06 11:20:18;;;;;;;23.70;19.50;;;19.00;92.40;;;;;;5032799;28;20499;-77
2021/06/06 11:22:46;;;;;;;22.70;18.60;;;19.20;92.00;;;;;;5034678;28;20448;-77
2021/06/06 11:25:40;;;;;;;23.73;20.07;;;19.30;92.00;;;;;;5033223;28;20806;-78
2021/06/06 11:28:24;;;;;;;22.20;18.63;;;19.60;90.60;;;;;;5032759;28;20515;-77
2021/06/06 11:30:52;;;;;;;21.17;17.97;;;20.10;91.00;;;;;;5031562;28;20481;-78
2021/06/06 11:33:32;;;;;;;21.60;18.37;;;20.60;83.70;;;;;;5023676;28;20485;-77
2021/06/06 11:35:59;;;;;;;18.93;16.27;;;20.80;79.10;;;;;;5026170;28;20420;-79
2021/06/06 11:38:40;;;;;;;19.87;17.30;;;21.00;77.60;;;;;;5028985;28;20504;-79
2021/06/06 11:41:30;;;;;;;17.03;15.23;;;21.20;75.20;;;;;;5026627;28;20485;-79
2021/06/06 11:44:02;;;;;;;17.53;15.40;;;21.30;74.50;;;;;;5023858;28;20485;-78
2021/06/06 11:46:33;;;;;;;17.83;15.93;;;21.40;74.10;;;;;;5022442;28;20484;-78
2021/06/06 11:49:14;;;;;;;19.67;17.00;;;21.30;73.80;;;;;;5023042;28;20442;-78
2021/06/06 11:51:44;;;;;;;19.70;17.60;;;21.20;73.70;;;;;;5028273;28;20452;-80
2021/06/06 11:54:23;;;;;;;19.07;17.07;;;21.20;73.50;;;;;;5024999;28;20470;-78
2021/06/06 11:56:53;;;;;;;24.60;18.43;;;21.40;73.80;;;;;;5026786;28;20451;-77
2021/06/06 11:59:26;;;;;;;19.27;16.77;;;21.40;70.60;;;;;;5028119;28;20494;-77
2021/06/06 12:01:54;;;;;;;22.10;18.30;;;21.50;72.20;;;;;;5031808;28;20446;-78
2021/06/06 12:04:30;;;;;;;20.93;17.63;;;21.40;72.60;;;;;;5027379;28;20505;-79
2021/06/06 12:06:57;;;;;;;23.70;20.30;;;20.90;75.60;;;;;;5018175;28;20568;-78
2021/06/06 12:09:33;;;;;;;24.70;20.57;;;20.70;75.30;;;;;;5017944;28;20585;-78
2021/06/06 12:12:10;;;;;;;28.37;21.80;;;20.20;79.00;;;;;;5017164;28;20585;-78
2021/06/06 12:14:36;;;;;;;23.30;20.57;;;20.00;81.10;;;;;;5018277;28;20468;-78
2021/06/06 12:17:07;;;;;;;23.53;20.43;;;19.80;84.40;;;;;;5017552;28;20461;-79
2021/06/06 12:19:41;;;;;;;27.60;21.23;;;19.90;85.30;;;;;;5023194;28;20457;-78
2021/06/06 12:22:11;;;;;;;25.17;21.80;;;19.90;85.30;;;;;;5019899;28;20792;-77
2021/06/06 12:24:37;;;;;;;23.90;21.40;;;19.90;87.80;;;;;;5018138;28;21122;-78
2021/06/06 12:27:10;;;;;;;25.90;21.57;;;20.10;84.00;;;;;;5035822;28;20490;-76
2021/06/06 12:29:45;;;;;;;22.67;20.27;;;20.20;80.90;;;;;;5034994;28;20451;-78
2021/06/06 12:32:14;;;;;;;24.03;21.50;;;20.40;80.10;;;;;;5034371;28;20444;-78
2021/06/06 12:34:41;;;;;;;22.40;19.67;;;20.70;77.30;;;;;;5023401;28;20846;-78
2021/06/06 12:37:11;;;;;;;22.87;20.37;;;21.00;76.30;;;;;;5019728;28;20470;-78
2021/06/06 12:39:41;;;;;;;23.77;20.03;;;21.30;73.20;;;;;;5028182;28;20487;-77
2021/06/06 12:42:10;;;;;;;20.73;18.50;;;21.40;72.20;;;;;;5023610;28;20486;-79
2021/06/06 12:44:42;;;;;;;21.10;18.77;;;21.70;71.00;;;;;;5024396;28;20503;-78
2021/06/06 12:47:23;;;;;;;25.13;20.07;;;22.00;68.70;;;;;;5022558;28;20439;-79